createdAt,value
2022-12-11T00:00:51.726Z,22.13
2022-12-11T00:03:19.411Z,28.90
2022-12-11T00:05:46.763Z,26.25
2022-12-11T00:08:14.031Z,43.05
2022-12-11T00:10:48.303Z,20.38
2022-12-11T00:13:15.345Z,18.05
2022-12-11T00:15:42.263Z,25.27
2022-12-11T00:18:13.981Z,26.77
2022-12-11T00:20:41.165Z,18.98
2022-12-11T00:23:08.308Z,20.90
2022-12-11T00:25:35.368Z,22.63
2022-12-11T00:28:02.284Z,44.10
2022-12-11T00:30:29.225Z,26.58
2022-12-11T00:32:56.182Z,22.40
2022-12-11T00:35:23.213Z,37.10
2022-12-11T00:37:50.257Z,58.15
2022-12-11T00:40:17.241Z,34.83
2022-12-11T00:42:44.226Z,24.20
2022-12-11T00:45:11.773Z,23.40
2022-12-11T00:47:39.228Z,20.75
2022-12-11T00:50:06.849Z,25.52
2022-12-11T00:52:34.868Z,24.35
2022-12-11T00:55:01.803Z,27.90
2022-12-11T00:57:28.825Z,22.75
2022-12-11T00:59:55.844Z,31.40
2022-12-11T01:02:22.816Z,24.80
2022-12-11T01:04:50.105Z,22.90
2022-12-11T01:07:17.190Z,26.65
2022-12-11T01:10:02.637Z,22.88
2022-12-11T01:12:29.735Z,20.55
2022-12-11T01:14:56.697Z,21.92
2022-12-11T01:17:23.767Z,24.73
2022-12-11T01:19:50.740Z,24.02
2022-12-11T01:22:17.646Z,22.92
2022-12-11T01:24:44.690Z,39.67
2022-12-11T01:27:11.932Z,26.35
2022-12-11T01:29:38.929Z,27.15
2022-12-11T01:32:05.917Z,25.05
2022-12-11T01:34:33.683Z,28.60
2022-12-11T01:37:00.787Z,44.33
2022-12-11T01:39:27.939Z,42.58
2022-12-11T01:42:01.638Z,23.75
2022-12-11T01:44:31.408Z,43.47
2022-12-11T01:46:58.624Z,23.00
2022-12-11T01:49:27.535Z,26.30
2022-12-11T01:52:10.745Z,21.73
2022-12-11T01:54:37.847Z,28.17
2022-12-11T01:57:07.762Z,32.45
2022-12-11T01:59:38.717Z,31.17
2022-12-11T02:02:19.432Z,78.18
2022-12-11T02:04:48.480Z,25.75
2022-12-11T02:07:16.150Z,27.80
2022-12-11T02:09:45.522Z,27.10
2022-12-11T02:12:18.440Z,31.73
2022-12-11T02:15:09.050Z,28.92
2022-12-11T02:17:44.110Z,35.47
2022-12-11T02:20:29.574Z,27.58
2022-12-11T02:23:20.826Z,67.35
2022-12-11T02:26:04.090Z,28.42
2022-12-11T02:28:50.321Z,26.10
2022-12-11T02:31:24.025Z,27.40
2022-12-11T02:34:04.670Z,29.27
2022-12-11T02:36:38.971Z,25.55
2022-12-11T02:39:09.733Z,26.58
2022-12-11T02:41:37.381Z,31.08
2022-12-11T02:44:05.201Z,54.13
2022-12-11T02:46:34.777Z,31.50
2022-12-11T02:49:05.944Z,68.55
2022-12-11T02:51:39.106Z,54.47
2022-12-11T02:54:14.003Z,60.47
2022-12-11T02:56:45.729Z,73.80
2022-12-11T02:59:21.937Z,160.98
2022-12-11T03:01:48.904Z,36.90
2022-12-11T03:04:16.090Z,27.75
2022-12-11T03:06:48.376Z,26.10
2022-12-11T03:09:15.320Z,28.38
2022-12-11T03:11:42.257Z,58.70
2022-12-11T03:14:09.624Z,88.78
2022-12-11T03:16:52.372Z,72.13
2022-12-11T03:19:29.024Z,61.03
2022-12-11T03:22:06.908Z,32.50
2022-12-11T03:24:55.081Z,38.28
2022-12-11T03:27:27.600Z,19.20
2022-12-11T03:30:04.436Z,33.10
2022-12-11T03:32:55.610Z,22.65
2022-12-11T03:35:25.308Z,22.13
2022-12-11T03:37:54.714Z,20.83
2022-12-11T03:40:23.827Z,17.70
2022-12-11T03:42:53.633Z,16.38
2022-12-11T03:45:22.627Z,15.55
2022-12-11T03:47:50.849Z,15.23
2022-12-11T03:50:20.226Z,16.52
2022-12-11T03:52:48.148Z,16.88
2022-12-11T03:55:17.801Z,19.27
2022-12-11T03:57:45.300Z,16.48
2022-12-11T04:00:16.234Z,15.35
2022-12-11T04:02:44.296Z,17.77
2022-12-11T04:05:12.339Z,16.75
2022-12-11T04:07:39.558Z,17.88
2022-12-11T04:10:07.071Z,17.35
2022-12-11T04:12:34.114Z,17.27
2022-12-11T04:15:03.786Z,15.82
2022-12-11T04:17:54.494Z,18.17
2022-12-11T04:20:40.424Z,16.05
2022-12-11T04:23:31.990Z,15.52
2022-12-11T04:26:14.690Z,14.35
2022-12-11T04:28:42.724Z,13.73
2022-12-11T04:31:14.927Z,15.07
2022-12-11T04:33:42.004Z,14.60
2022-12-11T04:36:09.781Z,13.23
2022-12-11T04:38:37.367Z,13.02
2022-12-11T04:41:10.008Z,12.38
2022-12-11T04:43:37.043Z,12.82
2022-12-11T04:46:11.016Z,11.63
2022-12-11T04:48:39.371Z,11.82
2022-12-11T04:51:07.196Z,9.95
2022-12-11T04:53:35.015Z,11.48
2022-12-11T04:56:04.954Z,9.75
2022-12-11T04:58:32.046Z,11.52
2022-12-11T05:00:59.069Z,10.35
2022-12-11T05:03:25.983Z,11.57
2022-12-11T05:05:53.791Z,11.57
2022-12-11T05:08:21.960Z,10.68
2022-12-11T05:11:00.152Z,11.27
2022-12-11T05:13:28.461Z,12.60
2022-12-11T05:15:55.666Z,7.38
2022-12-11T05:18:23.224Z,8.75
2022-12-11T05:21:01.973Z,9.45
2022-12-11T05:23:29.370Z,9.93
2022-12-11T05:25:58.781Z,9.30
2022-12-11T05:28:28.629Z,8.45
2022-12-11T05:30:57.899Z,7.85
2022-12-11T05:33:25.984Z,8.65
2022-12-11T05:35:53.422Z,8.90
2022-12-11T05:38:21.016Z,7.50
2022-12-11T05:41:04.856Z,10.30
2022-12-11T05:43:34.132Z,9.15
2022-12-11T05:46:22.077Z,8.27
2022-12-11T05:48:51.639Z,9.07
2022-12-11T05:51:19.284Z,9.15
2022-12-11T05:53:48.201Z,9.07
2022-12-11T05:56:19.501Z,9.70
2022-12-11T05:58:47.871Z,10.05
2022-12-11T06:01:18.271Z,12.90
2022-12-11T06:03:45.451Z,10.90
2022-12-11T06:06:13.056Z,12.18
2022-12-11T06:08:40.202Z,11.38
2022-12-11T06:11:07.703Z,12.73
2022-12-11T06:13:35.641Z,12.00
2022-12-11T06:16:05.449Z,11.80
2022-12-11T06:18:35.180Z,11.23
2022-12-11T06:21:02.305Z,9.98
2022-12-11T06:23:29.289Z,10.77
2022-12-11T06:25:56.169Z,11.60
2022-12-11T06:28:23.184Z,10.23
2022-12-11T06:30:50.157Z,11.68
2022-12-11T06:33:17.213Z,9.55
2022-12-11T06:35:44.249Z,10.63
2022-12-11T06:38:11.218Z,9.50
2022-12-11T06:40:38.374Z,9.82
2022-12-11T06:43:05.361Z,12.45
2022-12-11T06:45:32.439Z,9.68
2022-12-11T06:47:59.357Z,7.78
2022-12-11T06:50:26.713Z,8.60
2022-12-11T06:52:53.807Z,10.05
2022-12-11T06:55:20.928Z,8.50
2022-12-11T06:57:48.017Z,8.95
2022-12-11T07:00:15.641Z,9.43
2022-12-11T07:02:42.663Z,10.70
2022-12-11T07:05:09.993Z,9.40
2022-12-11T07:07:37.080Z,9.32
2022-12-11T07:10:08.377Z,9.40
2022-12-11T07:12:38.185Z,10.95
2022-12-11T07:15:06.148Z,8.85
2022-12-11T07:17:33.128Z,9.25
2022-12-11T07:20:00.149Z,8.90
2022-12-11T07:22:28.508Z,8.63
2022-12-11T07:24:55.439Z,9.45
2022-12-11T07:27:22.463Z,8.93
2022-12-11T07:29:50.975Z,10.25
2022-12-11T07:32:18.130Z,9.07
2022-12-11T07:34:51.387Z,9.30
2022-12-11T07:37:18.855Z,10.10
2022-12-11T07:39:45.801Z,9.60
2022-12-11T07:42:12.777Z,9.35
2022-12-11T07:44:39.700Z,8.88
2022-12-11T07:47:06.589Z,7.88
2022-12-11T07:49:33.507Z,9.95
2022-12-11T07:52:00.836Z,9.60
2022-12-11T07:54:27.800Z,12.32
2022-12-11T07:56:54.897Z,9.38
2022-12-11T07:59:21.849Z,9.77
2022-12-11T08:01:48.812Z,10.90
2022-12-11T08:04:15.987Z,9.95
2022-12-11T08:06:43.752Z,10.23
2022-12-11T08:09:20.630Z,9.45
2022-12-11T08:11:50.630Z,8.98
2022-12-11T08:14:18.389Z,9.57
2022-12-11T08:16:45.484Z,10.15
2022-12-11T08:19:13.247Z,11.00
2022-12-11T08:21:41.034Z,9.52
2022-12-11T08:24:08.965Z,10.13
2022-12-11T08:26:36.509Z,11.13
2022-12-11T08:29:04.183Z,10.10
2022-12-11T08:31:33.395Z,13.50
2022-12-11T08:34:00.827Z,12.68
2022-12-11T08:36:27.858Z,11.32
2022-12-11T08:38:56.244Z,14.05
2022-12-11T08:41:26.171Z,13.43
2022-12-11T08:43:55.165Z,12.32
2022-12-11T08:46:26.054Z,15.00
2022-12-11T08:48:54.208Z,15.82
2022-12-11T08:51:23.614Z,12.95
2022-12-11T08:53:51.256Z,14.32
2022-12-11T08:56:23.696Z,13.18
2022-12-11T08:58:51.645Z,13.73
2022-12-11T09:01:21.726Z,16.02
2022-12-11T09:03:50.135Z,13.10
2022-12-11T09:06:19.383Z,14.40
2022-12-11T09:08:52.300Z,16.10
2022-12-11T09:11:26.390Z,15.60
2022-12-11T09:13:54.287Z,13.70
2022-12-11T09:16:23.311Z,13.50
2022-12-11T09:18:52.617Z,15.48
2022-12-11T09:21:22.413Z,12.30
2022-12-11T09:23:52.272Z,13.23
2022-12-11T09:26:20.093Z,12.63
2022-12-11T09:28:47.527Z,14.30
2022-12-11T09:31:25.926Z,15.15
2022-12-11T09:33:56.594Z,13.68
2022-12-11T09:36:24.342Z,13.10
2022-12-11T09:38:51.805Z,18.58
2022-12-11T09:41:21.797Z,15.48
2022-12-11T09:44:05.075Z,15.05
2022-12-11T09:46:34.455Z,12.25
2022-12-11T09:49:04.831Z,9.75
2022-12-11T09:51:46.273Z,10.23
2022-12-11T10:17:30.719Z,16.38
2022-12-11T10:20:03.522Z,13.43
2022-12-11T10:22:32.534Z,15.48
2022-12-11T10:25:11.872Z,16.75
2022-12-11T10:27:41.304Z,19.45
2022-12-11T10:30:17.118Z,17.15
2022-12-11T10:35:30.829Z,16.83
2022-12-11T10:38:10.458Z,18.27
2022-12-11T10:40:40.201Z,17.73
2022-12-11T10:43:07.179Z,19.52
2022-12-11T10:45:34.320Z,17.00
2022-12-11T10:48:11.005Z,14.00
2022-12-11T10:50:38.401Z,14.65
2022-12-11T10:53:06.078Z,19.35
2022-12-11T10:55:45.530Z,16.35
2022-12-11T10:58:18.133Z,14.43
2022-12-11T11:00:45.991Z,17.65
2022-12-11T11:03:26.321Z,15.70
2022-12-11T11:06:15.442Z,18.35
2022-12-11T11:08:50.633Z,14.02
2022-12-11T11:11:25.259Z,13.82
2022-12-11T11:13:53.207Z,15.88
2022-12-11T11:16:22.307Z,14.43
2022-12-11T11:18:54.106Z,13.52
2022-12-11T11:21:24.357Z,14.07
2022-12-11T11:23:53.612Z,15.65
2022-12-11T11:26:22.971Z,14.68
2022-12-11T11:28:54.596Z,15.55
2022-12-11T11:31:31.424Z,14.00
2022-12-11T11:34:03.988Z,13.32
2022-12-11T11:36:34.013Z,12.95
2022-12-11T11:39:07.707Z,13.32
2022-12-11T11:41:46.588Z,12.35
2022-12-11T11:44:19.747Z,14.85
2022-12-11T11:46:55.752Z,12.32
2022-12-11T11:49:46.109Z,13.50
2022-12-11T11:52:30.805Z,11.30
2022-12-11T11:55:10.445Z,12.25
2022-12-11T11:57:42.444Z,15.52
2022-12-11T12:00:27.629Z,12.88
2022-12-11T12:03:09.016Z,14.27
2022-12-11T12:06:00.452Z,12.60
2022-12-11T12:08:46.739Z,14.27
2022-12-11T12:14:53.212Z,13.07
2022-12-11T12:17:50.586Z,14.65
2022-12-11T12:20:34.691Z,14.05
2022-12-11T12:23:36.641Z,12.45
2022-12-11T12:26:17.150Z,11.40
2022-12-11T12:29:12.287Z,13.38
2022-12-11T12:32:07.801Z,11.98
2022-12-11T12:34:52.791Z,13.52
2022-12-11T12:37:45.839Z,12.32
2022-12-11T12:40:40.493Z,13.30
2022-12-11T12:43:23.455Z,14.73
2022-12-11T12:46:05.795Z,13.68
2022-12-11T12:48:33.072Z,14.07
2022-12-11T12:51:00.471Z,13.05
2022-12-11T12:53:32.554Z,14.95
2022-12-11T12:56:01.809Z,12.75
2022-12-11T12:58:35.876Z,14.23
2022-12-11T13:01:12.667Z,12.52
2022-12-11T13:03:58.113Z,11.82
2022-12-11T13:06:45.947Z,13.10
2022-12-11T13:09:21.105Z,11.93
2022-12-11T13:11:53.665Z,13.63
2022-12-11T13:14:23.563Z,10.48
2022-12-11T13:16:53.433Z,10.65
2022-12-11T13:19:23.523Z,11.48
2022-12-11T13:21:58.332Z,11.65
2022-12-11T13:24:28.099Z,8.77
2022-12-11T13:26:55.861Z,92.38
2022-12-11T13:29:37.692Z,31.65
2022-12-11T13:32:10.680Z,10.07
2022-12-11T13:34:40.676Z,10.02
2022-12-11T13:37:25.973Z,10.63
2022-12-11T13:39:53.568Z,8.73
2022-12-11T13:42:47.961Z,9.70
2022-12-11T13:45:34.894Z,9.43
2022-12-11T13:48:01.993Z,8.20
2022-12-11T13:50:32.709Z,9.52
2022-12-11T13:53:02.558Z,9.02
2022-12-11T13:55:34.687Z,10.05
2022-12-11T13:58:01.853Z,9.68
2022-12-11T14:00:32.748Z,7.50
2022-12-11T14:03:07.369Z,9.88
2022-12-11T14:05:35.649Z,7.60
2022-12-11T14:08:10.359Z,8.07
2022-12-11T14:10:38.832Z,7.97
2022-12-11T14:13:11.292Z,8.80
2022-12-11T14:15:44.095Z,7.55
2022-12-11T14:18:20.164Z,7.90
2022-12-11T14:20:54.572Z,8.70
2022-12-11T14:23:25.397Z,8.98
2022-12-11T14:25:53.337Z,10.23
2022-12-11T14:28:21.261Z,12.88
2022-12-11T14:30:51.594Z,8.32
2022-12-11T14:33:23.468Z,8.95
2022-12-11T14:35:52.273Z,9.38
2022-12-11T14:38:45.061Z,7.70
2022-12-11T14:41:17.789Z,8.57
2022-12-11T14:44:01.892Z,10.27
2022-12-11T14:46:45.637Z,9.50
2022-12-11T14:49:24.162Z,9.32
2022-12-11T14:51:55.188Z,16.27
2022-12-11T14:54:33.402Z,10.52
2022-12-11T14:57:01.580Z,8.98
2022-12-11T14:59:32.284Z,9.05
2022-12-11T15:02:21.817Z,7.70
2022-12-11T15:05:13.154Z,7.28
2022-12-11T15:07:43.598Z,8.38
2022-12-11T15:10:42.615Z,8.50
2022-12-11T15:13:10.348Z,7.75
2022-12-11T15:15:47.715Z,8.65
2022-12-11T15:18:26.213Z,7.95
2022-12-11T15:20:55.657Z,23.42
2022-12-11T15:23:22.730Z,8.48
2022-12-11T15:25:52.795Z,10.00
2022-12-11T15:28:30.685Z,8.32
2022-12-11T15:31:00.951Z,7.97
2022-12-11T15:33:33.921Z,7.40
2022-12-11T15:36:06.375Z,9.90
2022-12-11T15:38:42.285Z,9.45
2022-12-11T15:43:41.246Z,8.40
2022-12-11T15:46:08.239Z,8.23
2022-12-11T15:48:35.251Z,8.15
2022-12-11T15:51:03.688Z,8.05
2022-12-11T15:53:30.713Z,8.88
2022-12-11T15:55:59.617Z,7.78
2022-12-11T15:58:27.402Z,10.32
2022-12-11T16:00:55.356Z,9.63
2022-12-11T16:03:23.705Z,8.07
2022-12-11T16:05:52.365Z,7.78
2022-12-11T16:08:22.266Z,10.55
2022-12-11T16:10:51.553Z,8.73
2022-12-11T16:13:18.592Z,9.90
2022-12-11T16:15:47.796Z,8.80
2022-12-11T16:18:21.621Z,8.63
2022-12-11T16:20:50.293Z,8.13
2022-12-11T16:23:18.002Z,9.23
2022-12-11T16:25:46.160Z,10.73
2022-12-11T16:28:15.200Z,9.60
2022-12-11T16:30:43.515Z,7.82
2022-12-11T16:33:13.312Z,7.90
2022-12-11T16:35:41.744Z,7.93
2022-12-11T16:38:10.124Z,8.93
2022-12-11T16:40:37.852Z,10.38
2022-12-11T16:43:05.727Z,8.80
2022-12-11T16:45:33.100Z,9.23
2022-12-11T16:48:03.925Z,11.88
2022-12-11T16:50:32.220Z,8.60
2022-12-11T16:52:59.248Z,8.05
2022-12-11T16:55:26.139Z,8.15
2022-12-11T16:57:53.180Z,9.40
2022-12-11T17:00:20.608Z,9.40
2022-12-11T17:02:47.665Z,8.70
2022-12-11T17:05:15.077Z,10.35
2022-12-11T17:07:42.212Z,10.73
2022-12-11T17:10:09.401Z,10.05
2022-12-11T17:12:36.409Z,12.30
2022-12-11T17:15:03.835Z,10.32
2022-12-11T17:17:31.090Z,10.70
2022-12-11T17:19:58.182Z,11.50
2022-12-11T17:22:25.325Z,11.57
2022-12-11T17:24:52.376Z,14.45
2022-12-11T17:27:19.687Z,11.52
2022-12-11T17:29:49.445Z,11.75
2022-12-11T17:32:17.610Z,10.95
2022-12-11T17:34:45.841Z,11.45
2022-12-11T17:37:12.988Z,11.70
2022-12-11T17:39:40.262Z,13.32
2022-12-11T17:42:07.249Z,12.00
2022-12-11T17:44:34.538Z,10.63
2022-12-11T17:47:06.077Z,10.95
2022-12-11T17:49:36.309Z,12.23
2022-12-11T17:52:03.509Z,11.18
2022-12-11T17:54:30.523Z,11.25
2022-12-11T17:56:57.503Z,10.00
2022-12-11T17:59:24.644Z,12.48
2022-12-11T18:01:51.730Z,11.27
2022-12-11T18:04:18.769Z,12.32
2022-12-11T18:06:45.908Z,14.25
2022-12-11T18:09:12.926Z,14.68
2022-12-11T18:11:41.288Z,12.38
2022-12-11T18:14:11.152Z,14.35
2022-12-11T18:16:42.452Z,15.45
2022-12-11T18:19:09.558Z,16.27
2022-12-11T18:21:40.593Z,13.05
2022-12-11T18:24:08.843Z,16.85
2022-12-11T18:26:37.524Z,15.43
2022-12-11T18:29:05.075Z,15.85
2022-12-11T18:31:34.436Z,19.95
2022-12-11T18:34:05.225Z,18.30
2022-12-11T18:36:33.587Z,15.90
2022-12-11T18:39:00.655Z,14.60
2022-12-11T18:41:27.705Z,14.90
2022-12-11T18:43:55.392Z,14.18
2022-12-11T18:46:22.808Z,15.57
2022-12-11T18:48:50.784Z,17.40
2022-12-11T18:51:23.600Z,16.38
2022-12-11T18:53:50.929Z,16.17
2022-12-11T18:56:20.029Z,13.80
2022-12-11T18:58:47.520Z,16.42
2022-12-11T19:01:26.430Z,14.90
2022-12-11T19:04:00.638Z,16.65
2022-12-11T19:06:32.009Z,25.23
2022-12-11T19:09:00.250Z,14.43
2022-12-11T19:11:29.927Z,14.82
2022-12-11T19:13:57.796Z,16.00
2022-12-11T19:16:26.977Z,15.35
2022-12-11T19:18:54.165Z,15.43
2022-12-11T19:21:21.447Z,14.23
2022-12-11T19:23:49.102Z,15.68
2022-12-11T19:26:19.502Z,15.65
2022-12-11T19:28:47.640Z,15.32
2022-12-11T19:31:22.885Z,15.63
2022-12-11T19:33:50.472Z,16.90
2022-12-11T19:36:20.945Z,16.38
2022-12-11T19:38:48.231Z,13.55
2022-12-11T19:41:27.208Z,14.15
2022-12-11T19:43:56.104Z,14.23
2022-12-11T19:46:23.919Z,15.20
2022-12-11T19:48:53.811Z,12.93
2022-12-11T19:51:23.620Z,14.27
2022-12-11T19:53:51.263Z,15.77
2022-12-11T19:56:18.884Z,16.23
2022-12-11T19:58:46.514Z,14.43
2022-12-11T20:01:25.956Z,13.50
2022-12-11T20:03:53.928Z,19.55
2022-12-11T20:06:21.714Z,15.30
2022-12-11T20:08:48.940Z,17.42
2022-12-11T20:11:18.724Z,16.45
2022-12-11T20:13:49.780Z,14.75
2022-12-11T20:16:20.009Z,16.58
2022-12-11T20:18:57.179Z,14.95
2022-12-11T20:21:24.306Z,15.65
2022-12-11T20:23:51.439Z,16.05
2022-12-11T20:26:21.927Z,17.70
2022-12-11T20:28:54.015Z,14.30
2022-12-11T20:31:24.973Z,16.98
2022-12-11T20:33:55.797Z,15.73
2022-12-11T20:36:24.452Z,16.02
2022-12-11T20:38:52.143Z,14.68
2022-12-11T20:41:22.792Z,16.33
2022-12-11T20:43:50.392Z,17.30
2022-12-11T20:46:18.588Z,14.60
2022-12-11T20:48:47.343Z,17.92
2022-12-11T20:51:19.725Z,16.25
2022-12-11T20:53:57.433Z,15.32
2022-12-11T20:56:26.560Z,16.38
2022-12-11T20:58:54.354Z,18.08
2022-12-11T21:01:23.771Z,18.20
2022-12-11T21:03:52.910Z,17.17
2022-12-11T21:06:19.996Z,16.98
2022-12-11T21:08:47.077Z,16.85
2022-12-11T21:11:14.464Z,14.90
2022-12-11T21:13:41.636Z,17.58
2022-12-11T21:16:09.817Z,16.35
2022-12-11T21:18:37.508Z,18.70
2022-12-11T21:21:05.247Z,16.88
2022-12-11T21:23:32.527Z,21.15
2022-12-11T21:25:59.593Z,18.85
2022-12-11T21:28:30.560Z,18.40
2022-12-11T21:31:06.651Z,16.17
2022-12-11T21:33:34.800Z,14.80
2022-12-11T21:36:02.171Z,14.93
2022-12-11T21:38:29.752Z,15.05
2022-12-11T21:40:57.010Z,16.20
2022-12-11T21:43:24.953Z,18.88
2022-12-11T21:46:00.928Z,17.02
2022-12-11T21:48:28.315Z,20.15
2022-12-11T21:50:55.347Z,17.25
2022-12-11T21:53:22.298Z,16.00
2022-12-11T21:55:49.421Z,15.55
2022-12-11T21:58:16.481Z,17.73
2022-12-11T22:00:45.782Z,16.92
2022-12-11T22:03:13.989Z,18.40
2022-12-11T22:05:41.023Z,19.80
2022-12-11T22:08:08.295Z,18.58
2022-12-11T22:10:35.362Z,21.23
2022-12-11T22:13:02.336Z,21.65
2022-12-11T22:15:29.324Z,22.48
2022-12-11T22:17:56.388Z,19.73
2022-12-11T22:20:23.374Z,44.03
2022-12-11T22:22:53.615Z,29.23
2022-12-11T22:25:20.678Z,17.70
2022-12-11T22:27:47.703Z,18.05
2022-12-11T22:30:14.727Z,16.08
2022-12-11T22:32:43.213Z,21.60
2022-12-11T22:35:10.896Z,20.52
2022-12-11T22:37:38.319Z,20.23
2022-12-11T22:40:06.134Z,20.80
2022-12-11T22:42:33.817Z,23.70
2022-12-11T22:45:00.850Z,19.55
2022-12-11T22:47:27.889Z,21.50
2022-12-11T22:49:54.985Z,22.83
2022-12-11T22:52:22.004Z,23.30
2022-12-11T22:54:49.134Z,22.67
2022-12-11T22:57:16.168Z,18.88
2022-12-11T22:59:43.196Z,21.73
2022-12-11T23:02:10.242Z,22.38
2022-12-11T23:04:38.717Z,21.33
2022-12-11T23:07:05.886Z,23.67
2022-12-11T23:09:32.967Z,20.83
2022-12-11T23:12:00.101Z,19.83
2022-12-11T23:14:27.480Z,20.83
2022-12-11T23:16:54.573Z,23.55
2022-12-11T23:19:25.480Z,22.40
2022-12-11T23:21:53.261Z,24.98
2022-12-11T23:24:20.118Z,21.85
2022-12-11T23:26:48.079Z,22.73
2022-12-11T23:29:15.280Z,23.80
2022-12-11T23:31:42.389Z,23.63
2022-12-11T23:34:09.368Z,21.23
2022-12-11T23:36:36.376Z,25.30
2022-12-11T23:39:04.149Z,21.02
2022-12-11T23:41:31.269Z,19.10
2022-12-11T23:43:59.318Z,20.88
2022-12-11T23:46:26.437Z,20.38
2022-12-11T23:48:54.577Z,20.33
2022-12-11T23:51:23.669Z,17.73
2022-12-11T23:53:51.796Z,20.17
2022-12-11T23:56:25.004Z,21.33
2022-12-11T23:58:52.928Z,19.67
